Rio Mitong — D6GE6 — position and weather

sailwx.info

Track history (hours):
 
Tides and Currents Weather Stations Pressure Air Temp Water Temp Dewpoint Dewpoint Depression Visibility Wind Speed Wind Dir Waves Ship Positions

Rio Mitong

Last reported at 2017-Oct-31 04:43 UTC. Time now 2017-Nov-23 02:04 UTC.
Position N 25°53' W 016°13'.
Warning: this ship's position is 22 days out of date.

Length 122 m; draft 8.5 m.

Type: Cargo ship. MMSI: 616999031.

Date/timePositionNaut miles runAvg speedWind from/ knotsBaromVisibWave heightAir tempDewpointWater temp
2017-Oct-31 04:43N 25°53' W 016°13'1310.7
2017-Oct-31 03:32N 26°02' W 016°03'9010.6
2017-Oct-30 19:06N 27°03' W 014°50'110.0
2017-Oct-30 19:00N 27°04' W 014°49'510.0
2017-Oct-30 18:30N 27°08' W 014°45'510.2
2017-Oct-30 17:59N 27°11' W 014°41'510.2
2017-Oct-30 17:30N 27°15' W 014°37'510.2
2017-Oct-30 17:00N 27°18' W 014°33'510.2
2017-Oct-30 16:30N 27°22' W 014°29'510.3
2017-Oct-30 16:00N 27°25' W 014°25'510.4
2017-Oct-30 15:29N 27°29' W 014°20'510.5
2017-Oct-30 15:00N 27°32' W 014°16'1010.4
2017-Oct-30 14:00N 27°39' W 014°08'510.1
2017-Oct-30 13:30N 27°43' W 014°03'5 9.9
2017-Oct-30 13:00N 27°46' W 013°59'5 9.8
2017-Oct-30 12:30N 27°50' W 013°55'5 9.6
2017-Oct-30 12:00N 27°53' W 013°51'5 9.6
2017-Oct-30 11:30N 27°56' W 013°47'5 9.6
2017-Oct-30 11:00N 27°60' W 013°44'5 9.7
2017-Oct-30 10:30N 28°04' W 013°41'5 9.9
2017-Oct-30 10:00N 28°09' W 013°39'510.1
2017-Oct-30 09:30N 28°13' W 013°36'510.1
2017-Oct-30 08:57N 28°18' W 013°34'510.1
2017-Oct-30 08:30N 28°22' W 013°31'1010.2
2017-Oct-30 07:31N 28°31' W 013°27'010.3
2017-Oct-30 07:29N 28°32' W 013°26'710.2
2017-Oct-30 06:49N 28°38' W 013°23'5 9.9
2017-Oct-30 06:17N 28°43' W 013°21'6 9.9
2017-Oct-30 05:41N 28°48' W 013°18'7 9.9
2017-Oct-30 04:58N 28°54' W 013°15'910.2
2017-Oct-30 04:08N 29°02' W 013°11'210.6
2017-Oct-30 03:58N 29°04' W 013°10'510.6
2017-Oct-30 03:30N 29°08' W 013°08'2910.7
2017-Oct-30 00:48N 29°35' W 012°54'310.9
2017-Oct-30 00:30N 29°37' W 012°52'510.9
2017-Oct-30 00:00N 29°42' W 012°49'510.9
2017-Oct-29 23:30N 29°47' W 012°47'511.0
2017-Oct-29 23:00N 29°52' W 012°44'611.0
2017-Oct-29 22:30N 29°57' W 012°41'611.0
2017-Oct-29 22:00N 30°02' W 012°39'511.0
2017-Oct-29 21:30N 30°08' W 012°37'610.9
2017-Oct-29 21:00N 30°13' W 012°35'610.7
2017-Oct-29 20:26N 30°19' W 012°32'510.5
2017-Oct-29 19:59N 30°23' W 012°31'710.5
2017-Oct-29 19:16N 30°30' W 012°28'410.6
2017-Oct-29 18:54N 30°34' W 012°27'410.5
2017-Oct-29 18:30N 30°38' W 012°25'510.5
2017-Oct-29 18:00N 30°43' W 012°23'510.1
2017-Oct-29 17:29N 30°47' W 012°21'510.3
2017-Oct-29 17:00N 30°52' W 012°19'510.4
2017-Oct-29 16:30N 30°57' W 012°17'510.6
2017-Oct-29 15:59N 31°02' W 012°15'1610.5
2017-Oct-29 14:29N 31°17' W 012°09'510.6
2017-Oct-29 14:00N 31°22' W 012°07'510.7
2017-Oct-29 13:30N 31°27' W 012°05'710.7
2017-Oct-29 12:49N 31°34' W 012°02'910.4
2017-Oct-29 11:57N 31°42' W 011°59'510.3
2017-Oct-29 11:29N 31°47' W 011°57'510.4
2017-Oct-29 10:59N 31°52' W 011°55'910.5
2017-Oct-29 10:07N 32°01' W 011°52'110.4
2017-Oct-29 09:59N 32°02' W 011°51'510.4
2017-Oct-29 09:28N 32°07' W 011°49'810.3
2017-Oct-29 08:42N 32°14' W 011°46'310.1
2017-Oct-29 08:24N 32°17' W 011°45'610.2
2017-Oct-29 07:50N 32°23' W 011°42'310.4
2017-Oct-29 07:30N 32°26' W 011°41'510.4
2017-Oct-29 07:00N 32°31' W 011°39'510.2
2017-Oct-29 06:29N 32°36' W 011°37'610.3
2017-Oct-29 05:54N 32°42' W 011°35'410.5
2017-Oct-29 05:29N 32°46' W 011°33'510.6
2017-Oct-29 05:00N 32°51' W 011°31'510.6
2017-Oct-29 04:30N 32°56' W 011°29'510.6
2017-Oct-29 04:00N 33°01' W 011°27'9510.5
2017-Oct-28 18:58N 34°30' W 010°50'510.2
2017-Oct-28 18:30N 34°34' W 010°48'510.2
2017-Oct-28 18:00N 34°39' W 010°46'510.2
2017-Oct-28 17:30N 34°44' W 010°44'510.3
2017-Oct-28 17:00N 34°49' W 010°42'510.3
2017-Oct-28 16:30N 34°54' W 010°40'510.3
2017-Oct-28 16:00N 34°59' W 010°38'510.0
2017-Oct-28 15:30N 35°03' W 010°36'5 9.9
2017-Oct-28 15:00N 35°08' W 010°34'510.0
2017-Oct-28 14:30N 35°13' W 010°32'510.2
2017-Oct-28 14:00N 35°18' W 010°30'510.3
2017-Oct-28 13:30N 35°22' W 010°28'510.1
2017-Oct-28 13:00N 35°27' W 010°26'510.1
2017-Oct-28 12:30N 35°32' W 010°24'510.2
2017-Oct-28 12:00N 35°37' W 010°22'510.2
2017-Oct-28 11:30N 35°42' W 010°19'3410.0
2017-Oct-28 08:06N 36°14' W 010°06'110.1
2017-Oct-28 07:59N 36°15' W 010°06'510.0
2017-Oct-28 07:30N 36°19' W 010°03'5 9.8
2017-Oct-28 07:00N 36°24' W 010°01'5 9.5
2017-Oct-28 06:30N 36°29' W 009°60'5 9.5
2017-Oct-28 06:00N 36°33' W 009°58'5 9.8
2017-Oct-28 05:30N 36°38' W 009°56'5 9.8
2017-Oct-28 05:00N 36°42' W 009°54'510.3
2017-Oct-28 04:30N 36°47' W 009°52'510.5
2017-Oct-28 04:00N 36°52' W 009°49'510.3
2017-Oct-28 03:30N 36°57' W 009°47'510.4
2017-Oct-28 03:00N 37°02' W 009°45'510.7
2017-Oct-28 02:30N 37°07' W 009°43'510.5
2017-Oct-28 02:00N 37°12' W 009°41'510.6
2017-Oct-28 01:30N 37°17' W 009°39'510.6
2017-Oct-28 01:00N 37°22' W 009°36'510.4
2017-Oct-28 00:30N 37°26' W 009°33'510.3
2017-Oct-28 00:00N 37°31' W 009°30'510.7
2017-Oct-27 23:30N 37°36' W 009°27'510.8
2017-Oct-27 23:00N 37°41' W 009°24'510.7
2017-Oct-27 22:30N 37°46' W 009°22'510.7
2017-Oct-27 22:00N 37°51' W 009°19'510.7
2017-Oct-27 21:30N 37°56' W 009°17'510.6
2017-Oct-27 21:00N 38°00' W 009°14'510.6
2017-Oct-27 20:30N 38°05' W 009°11'510.3
2017-Oct-27 20:00N 38°10' W 009°09'5 9.9
2017-Oct-27 19:30N 38°15' W 009°06'510.2
2017-Oct-27 19:00N 38°19' W 009°04'5 9.9
2017-Oct-27 18:30N 38°24' W 009°01'5 9.7
2017-Oct-27 18:00N 38°28' W 008°58'4 9.0
2017-Oct-27 17:30N 38°31' W 008°54'1 1.1
2017-Oct-27 16:58N 38°31' W 008°53'0 0.0
2017-Oct-27 16:25N 38°31' W 008°53'0 0.0
2017-Oct-27 15:49N 38°31' W 008°53'0 0.0
2017-Oct-27 15:25N 38°31' W 008°53'0 0.0
2017-Oct-27 14:55N 38°31' W 008°53'0 0.0
2017-Oct-27 14:28N 38°31' W 008°53'0 0.0
2017-Oct-27 13:58N 38°31' W 008°53'0 0.0
2017-Oct-27 13:25N 38°31' W 008°53'0 0.0
2017-Oct-27 12:58N 38°31' W 008°53'0 0.0
2017-Oct-27 12:28N 38°31' W 008°53'0 0.0
2017-Oct-27 11:55N 38°31' W 008°53'0 0.0
2017-Oct-27 11:22N 38°31' W 008°53'0 0.0
2017-Oct-27 10:58N 38°31' W 008°53'0 0.0
2017-Oct-27 10:28N 38°31' W 008°53'0 0.0
2017-Oct-27 09:58N 38°31' W 008°53'0 0.0
2017-Oct-27 09:25N 38°31' W 008°53'0 0.0
2017-Oct-27 08:52N 38°31' W 008°53'0 0.0
2017-Oct-27 08:28N 38°31' W 008°53'0 0.0
2017-Oct-27 07:58N 38°31' W 008°53'0 0.0
2017-Oct-27 07:28N 38°31' W 008°53'0 0.0
2017-Oct-27 06:58N 38°31' W 008°53'0 0.0
2017-Oct-27 06:25N 38°31' W 008°53'0 0.0
2017-Oct-27 05:58N 38°31' W 008°53'0 0.0
2017-Oct-27 05:28N 38°31' W 008°53'0 0.0
2017-Oct-27 04:58N 38°31' W 008°53'0 0.0
2017-Oct-27 04:25N 38°31' W 008°53'0 0.0
2017-Oct-27 04:00N 38°31' W 008°53'0 0.0
2017-Oct-27 03:30N 38°31' W 008°53'0 0.0
2017-Oct-27 03:00N 38°31' W 008°53'0 0.0
2017-Oct-27 02:30N 38°31' W 008°53'0 0.0
2017-Oct-27 01:54N 38°31' W 008°53'0 0.0
2017-Oct-27 01:30N 38°31' W 008°53'0 0.0
2017-Oct-27 01:00N 38°31' W 008°53'0 0.0
2017-Oct-27 00:30N 38°31' W 008°53'0 0.0
2017-Oct-27 00:00N 38°31' W 008°53'0 0.0
2017-Oct-26 23:27N 38°31' W 008°53'0 0.0
2017-Oct-26 23:00N 38°31' W 008°53'0 0.0
2017-Oct-26 22:27N 38°31' W 008°53'0 0.0
2017-Oct-26 22:00N 38°31' W 008°53'0 0.0
2017-Oct-26 21:27N 38°31' W 008°53'0 0.0
2017-Oct-26 21:00N 38°31' W 008°53'0 0.0
2017-Oct-26 20:30N 38°31' W 008°53'0 0.0
2017-Oct-26 20:00N 38°31' W 008°53'0 0.0
2017-Oct-26 19:30N 38°31' W 008°53'0 0.0
2017-Oct-26 19:00N 38°31' W 008°53'0 0.0
2017-Oct-26 18:27N 38°31' W 008°53'0 0.0
2017-Oct-26 18:00N 38°31' W 008°53'0 0.0
2017-Oct-26 17:30N 38°31' W 008°53'0 0.0
2017-Oct-26 16:54N 38°31' W 008°53'0 0.0
2017-Oct-26 16:30N 38°31' W 008°53'0 0.0
2017-Oct-26 16:00N 38°31' W 008°53'0 0.0
2017-Oct-26 15:30N 38°31' W 008°53'0 0.0
2017-Oct-26 14:57N 38°31' W 008°53'0 0.0
2017-Oct-26 14:30N 38°31' W 008°53'0 0.0
2017-Oct-26 14:00N 38°31' W 008°53'0 0.0
2017-Oct-26 13:27N 38°31' W 008°53'0 0.0
2017-Oct-26 13:00N 38°31' W 008°53'0 0.0
2017-Oct-26 12:30N 38°31' W 008°53'0 0.0
2017-Oct-26 12:00N 38°31' W 008°53'0 1.0
2017-Oct-26 11:30N 38°31' W 008°54'1 1.0
2017-Oct-26 10:59N 38°31' W 008°54'0 0.0
2017-Oct-26 10:29N 38°31' W 008°54'0 0.0
2017-Oct-26 09:53N 38°31' W 008°54'0 0.0
2017-Oct-26 09:29N 38°31' W 008°54'0 0.0
2017-Oct-26 08:59N 38°31' W 008°54'0 0.0
2017-Oct-26 08:23N 38°31' W 008°54'0 0.0
2017-Oct-26 07:53N 38°31' W 008°54'0 0.0
2017-Oct-26 07:29N 38°31' W 008°54'0 0.2
2017-Oct-26 06:53N 38°31' W 008°54'0 0.0
2017-Oct-26 06:26N 38°31' W 008°54'0 0.0
2017-Oct-26 05:59N 38°31' W 008°54'0 0.0
2017-Oct-26 05:29N 38°31' W 008°54'0 0.0
2017-Oct-26 04:59N 38°31' W 008°54'0 0.0
2017-Oct-26 04:29N 38°31' W 008°54'0 0.0
2017-Oct-26 03:56N 38°31' W 008°54'0 0.0
2017-Oct-26 03:29N 38°31' W 008°54'0 0.0
2017-Oct-26 02:59N 38°31' W 008°54'0 0.0
2017-Oct-26 02:29N 38°31' W 008°54'0 0.0
2017-Oct-26 01:59N 38°31' W 008°54'0 0.0
2017-Oct-26 01:29N 38°31' W 008°54'0 0.0
2017-Oct-26 00:59N 38°31' W 008°54'0 0.1
2017-Oct-26 00:29N 38°31' W 008°54'0 0.2
2017-Oct-25 23:59N 38°31' W 008°54'0 0.0
2017-Oct-25 23:26N 38°31' W 008°54'0 0.0
2017-Oct-25 22:59N 38°31' W 008°54'0 0.0
2017-Oct-25 22:29N 38°31' W 008°54'0 0.0
2017-Oct-25 21:59N 38°31' W 008°54'0 0.0
2017-Oct-25 21:23N 38°31' W 008°54'0 0.0
2017-Oct-25 20:17N 38°31' W 008°54'0 0.0
2017-Oct-25 19:59N 38°31' W 008°54'0 0.2
2017-Oct-25 19:26N 38°31' W 008°54'0 0.1
2017-Oct-25 18:59N 38°31' W 008°54'0 0.1
2017-Oct-25 18:29N 38°31' W 008°54'0 0.0
2017-Oct-25 17:59N 38°31' W 008°54'0 0.0
2017-Oct-25 17:29N 38°31' W 008°54'0 0.0
2017-Oct-25 16:59N 38°31' W 008°54'0 0.0
2017-Oct-25 16:29N 38°31' W 008°54'0 0.0
2017-Oct-25 15:59N 38°31' W 008°54'0 0.0
2017-Oct-25 15:29N 38°31' W 008°54'0 0.0
2017-Oct-25 14:59N 38°31' W 008°54'0 0.0
2017-Oct-25 14:23N 38°31' W 008°54'0 0.0
2017-Oct-25 13:41N 38°31' W 008°54'0 0.0
2017-Oct-25 13:26N 38°31' W 008°54'0 0.0
2017-Oct-25 12:59N 38°31' W 008°54'0 0.0
2017-Oct-25 12:29N 38°31' W 008°54'0 0.1
2017-Oct-25 11:56N 38°31' W 008°54'0 0.2
2017-Oct-25 11:23N 38°31' W 008°54'1 2.3
2017-Oct-25 10:59N 38°30' W 008°55'1 1.7
2017-Oct-25 10:27N 38°30' W 008°56'0 0.0
2017-Oct-25 09:57N 38°30' W 008°56'0 0.0
2017-Oct-25 09:27N 38°30' W 008°56'0 0.0
2017-Oct-25 08:51N 38°30' W 008°56'0 0.0
2017-Oct-25 08:30N 38°30' W 008°56'0 0.0
2017-Oct-25 08:00N 38°30' W 008°56'0 0.0
2017-Oct-25 07:30N 38°30' W 008°56'0 0.0
2017-Oct-25 07:00N 38°30' W 008°56'0 0.0
2017-Oct-25 06:30N 38°30' W 008°56'0 0.0
2017-Oct-25 06:00N 38°30' W 008°56'0 0.0
2017-Oct-25 05:30N 38°30' W 008°56'0 0.0
2017-Oct-25 05:00N 38°30' W 008°56'0 0.0
2017-Oct-25 04:30N 38°30' W 008°56'0 0.0
2017-Oct-25 04:00N 38°30' W 008°56'0 0.0
2017-Oct-25 03:30N 38°30' W 008°56'0 0.0
2017-Oct-25 03:00N 38°30' W 008°56'0 0.0
2017-Oct-25 02:30N 38°30' W 008°56'0 0.0
2017-Oct-25 02:00N 38°30' W 008°56'0 0.0
2017-Oct-25 01:30N 38°30' W 008°56'0 0.0
2017-Oct-25 01:00N 38°30' W 008°56'0 0.0
2017-Oct-25 00:30N 38°30' W 008°56'0 0.0
2017-Oct-25 00:00N 38°30' W 008°56'0 0.0
2017-Oct-24 23:30N 38°30' W 008°56'0 0.0
2017-Oct-24 23:00N 38°30' W 008°56'0 0.0
2017-Oct-24 22:30N 38°30' W 008°56'0 0.0
2017-Oct-24 22:00N 38°30' W 008°56'0 0.0
2017-Oct-24 21:30N 38°30' W 008°56'0 0.0
2017-Oct-24 21:00N 38°30' W 008°56'0 0.0
2017-Oct-24 20:27N 38°30' W 008°56'0 0.0
2017-Oct-24 20:00N 38°30' W 008°56'0 0.0
2017-Oct-24 19:30N 38°30' W 008°56'0 0.0
2017-Oct-24 19:00N 38°30' W 008°56'0 0.0
2017-Oct-24 18:30N 38°30' W 008°56'0 0.0
2017-Oct-24 18:00N 38°30' W 008°56'0 0.0
2017-Oct-24 17:27N 38°30' W 008°56'0 0.0
2017-Oct-24 16:57N 38°30' W 008°56'0 0.0
2017-Oct-24 16:30N 38°30' W 008°56'0 0.0
2017-Oct-24 16:00N 38°30' W 008°56'0 0.0
2017-Oct-24 15:30N 38°30' W 008°56'0 0.0
2017-Oct-24 15:00N 38°30' W 008°56'0 0.0
2017-Oct-24 14:30N 38°30' W 008°56'0 0.0
2017-Oct-24 14:00N 38°30' W 008°56'0 0.0
2017-Oct-24 13:30N 38°30' W 008°56'0 0.0
2017-Oct-24 13:00N 38°30' W 008°56'0 0.0
2017-Oct-24 12:30N 38°30' W 008°56'0 0.0
2017-Oct-24 12:00N 38°30' W 008°56'0 0.0
2017-Oct-24 11:30N 38°30' W 008°56'0 0.0
2017-Oct-24 11:00N 38°30' W 008°56'0 0.0
2017-Oct-24 10:30N 38°30' W 008°56'0 0.0
2017-Oct-24 10:00N 38°30' W 008°56'0 0.0
2017-Oct-24 09:27N 38°30' W 008°56'0 0.0
2017-Oct-24 09:00N 38°30' W 008°56'0 0.0
2017-Oct-24 08:30N 38°30' W 008°56'0 0.0
2017-Oct-24 07:54N 38°30' W 008°56'0 0.0
2017-Oct-24 07:30N 38°30' W 008°56'0 0.0
2017-Oct-24 07:00N 38°30' W 008°56'0 0.0
2017-Oct-24 06:30N 38°30' W 008°56'0 0.0
2017-Oct-24 06:00N 38°30' W 008°56'0 0.0
2017-Oct-24 05:30N 38°30' W 008°56'0 0.0
2017-Oct-24 05:00N 38°30' W 008°56'0 0.0
2017-Oct-24 04:30N 38°30' W 008°56'0 0.0
2017-Oct-24 04:00N 38°30' W 008°56'0 0.0
2017-Oct-24 03:30N 38°30' W 008°56'0 0.0
2017-Oct-24 03:00N 38°30' W 008°56'0 0.0
2017-Oct-24 02:30N 38°30' W 008°56'0 0.0
2017-Oct-24 02:00N 38°30' W 008°56'0 0.0
2017-Oct-24 01:30N 38°30' W 008°56'0 0.0
2017-Oct-24 01:00N 38°30' W 008°56'0 0.0
2017-Oct-24 00:30N 38°30' W 008°56'0 0.0
2017-Oct-24 00:00N 38°30' W 008°56'0 0.0
2017-Oct-23 23:30N 38°30' W 008°56'0 0.0
2017-Oct-23 23:00N 38°30' W 008°56'0 0.0
2017-Oct-23 22:30N 38°30' W 008°56'0 0.0
2017-Oct-23 22:00N 38°30' W 008°56'0 0.0
2017-Oct-23 21:30N 38°30' W 008°56'0 0.0
2017-Oct-23 21:00N 38°30' W 008°56'0 0.0
2017-Oct-23 20:30N 38°30' W 008°56'0 0.0
2017-Oct-23 19:57N 38°30' W 008°56'0 0.0
2017-Oct-23 19:30N 38°30' W 008°56'0 0.0
2017-Oct-23 19:00N 38°30' W 008°56'0 0.0
2017-Oct-23 18:30N 38°30' W 008°56'0 0.0
2017-Oct-23 18:00N 38°30' W 008°56'0 0.0
2017-Oct-23 16:39N 38°30' W 008°56'0 0.0
2017-Oct-23 16:24N 38°30' W 008°56'0 0.0
2017-Oct-23 15:54N 38°30' W 008°56'0 0.0
2017-Oct-23 15:30N 38°30' W 008°56'0 0.0
2017-Oct-23 15:00N 38°30' W 008°56'0 0.0
2017-Oct-23 14:27N 38°30' W 008°56'0 0.0
2017-Oct-23 14:00N 38°30' W 008°56'0 0.0
2017-Oct-23 13:30N 38°30' W 008°56'0 0.0
2017-Oct-23 13:00N 38°30' W 008°56'0 0.0
2017-Oct-23 12:30N 38°30' W 008°56'0 0.0
2017-Oct-23 12:00N 38°30' W 008°56'0 0.0
2017-Oct-23 11:30N 38°30' W 008°56'0 0.0
2017-Oct-23 11:00N 38°30' W 008°56'0 0.0
2017-Oct-23 10:30N 38°30' W 008°56'0 0.0
2017-Oct-23 09:57N 38°30' W 008°56'0 0.0
2017-Oct-23 09:30N 38°30' W 008°56'0 0.0
2017-Oct-23 09:00N 38°30' W 008°56'0 0.0
2017-Oct-23 08:30N 38°30' W 008°56'0 0.0
2017-Oct-23 08:00N 38°30' W 008°56'0 0.0
2017-Oct-23 07:30N 38°30' W 008°56'0 0.0
2017-Oct-23 06:57N 38°30' W 008°56'0 0.0
2017-Oct-23 06:30N 38°30' W 008°56'0 0.0
2017-Oct-23 06:00N 38°30' W 008°56'0 0.0
2017-Oct-23 05:30N 38°30' W 008°56'0 0.0
2017-Oct-23 05:00N 38°30' W 008°56'0 0.0
2017-Oct-23 04:30N 38°30' W 008°56'0 0.0
2017-Oct-23 04:00N 38°30' W 008°56'0 0.0
2017-Oct-23 03:30N 38°30' W 008°56'0 0.0
2017-Oct-23 03:00N 38°30' W 008°56'0 0.0
2017-Oct-23 02:30N 38°30' W 008°56'0 0.0
2017-Oct-23 02:00N 38°30' W 008°56'0 0.0
2017-Oct-23 01:30N 38°30' W 008°56'0 0.0
2017-Oct-23 01:00N 38°30' W 008°56'0 0.0
2017-Oct-23 00:30N 38°30' W 008°56'0 0.0
2017-Oct-23 00:00N 38°30' W 008°56'0 0.0
2017-Oct-22 23:30N 38°30' W 008°56'0 0.0
2017-Oct-22 23:00N 38°30' W 008°56'0 0.0
2017-Oct-22 22:30N 38°30' W 008°56'0 0.0
2017-Oct-22 22:00N 38°30' W 008°56'0 0.0
2017-Oct-22 21:30N 38°30' W 008°56'0 0.0
2017-Oct-22 21:00N 38°30' W 008°56'0 0.0
2017-Oct-22 20:27N 38°30' W 008°56'0 0.0
2017-Oct-22 20:00N 38°30' W 008°56'0 0.0
2017-Oct-22 19:30N 38°30' W 008°56'0 0.0
2017-Oct-22 19:00N 38°30' W 008°56'0 0.0
2017-Oct-22 18:30N 38°30' W 008°56'0 0.0
2017-Oct-22 18:00N 38°30' W 008°56'0 0.0
2017-Oct-22 17:30N 38°30' W 008°56'0 0.0
2017-Oct-22 17:00N 38°30' W 008°56'0 0.0
2017-Oct-22 16:30N 38°30' W 008°56'0 0.0
2017-Oct-22 16:00N 38°30' W 008°56'0 0.0
2017-Oct-22 15:30N 38°30' W 008°56'0 0.0
2017-Oct-22 14:57N 38°30' W 008°56'0 0.0
2017-Oct-22 14:27N 38°30' W 008°56'0 0.0
2017-Oct-22 14:00N 38°30' W 008°56'0 0.0
2017-Oct-22 13:30N 38°30' W 008°56'0 0.0
2017-Oct-22 12:57N 38°30' W 008°56'0 0.0
2017-Oct-22 12:30N 38°30' W 008°56'0 0.0
2017-Oct-22 12:00N 38°30' W 008°56'0 0.0
2017-Oct-22 11:27N 38°30' W 008°56'0 0.0
2017-Oct-22 10:57N 38°30' W 008°56'0 0.0
2017-Oct-22 10:30N 38°30' W 008°56'0 0.0
2017-Oct-22 10:00N 38°30' W 008°56'0 0.0
2017-Oct-22 09:30N 38°30' W 008°56'0 0.0
2017-Oct-22 09:00N 38°30' W 008°56'0 0.0
2017-Oct-22 08:30N 38°30' W 008°56'0 0.0
2017-Oct-22 07:54N 38°30' W 008°56'0 0.0
2017-Oct-22 07:30N 38°30' W 008°56'0 0.0
2017-Oct-22 07:00N 38°30' W 008°56'0 0.0
2017-Oct-22 06:30N 38°30' W 008°56'0 0.0
2017-Oct-22 06:00N 38°30' W 008°56'0 0.0
2017-Oct-22 05:27N 38°30' W 008°56'0 0.0
2017-Oct-22 05:00N 38°30' W 008°56'0 0.0
2017-Oct-22 04:30N 38°30' W 008°56'0 0.0
2017-Oct-22 04:00N 38°30' W 008°56'0 0.0
2017-Oct-22 03:30N 38°30' W 008°56'0 0.0
2017-Oct-22 03:00N 38°30' W 008°56'0 0.0
2017-Oct-22 02:30N 38°30' W 008°56'0 0.0
2017-Oct-22 02:00N 38°30' W 008°56'0 0.0
2017-Oct-22 01:27N 38°30' W 008°56'0 0.0
2017-Oct-22 01:00N 38°30' W 008°56'0 0.0
2017-Oct-22 00:30N 38°30' W 008°56'0 0.0
2017-Oct-22 00:00N 38°30' W 008°56'0 0.0
2017-Oct-21 23:30N 38°30' W 008°56'0 0.0
2017-Oct-21 23:00N 38°30' W 008°56'0 0.0
2017-Oct-21 22:30N 38°30' W 008°56'0 0.0
2017-Oct-21 22:00N 38°30' W 008°56'0 0.0
2017-Oct-21 21:30N 38°30' W 008°56'0 0.0
2017-Oct-21 21:00N 38°30' W 008°56'0 0.0
2017-Oct-21 20:24N 38°30' W 008°56'0 0.0
2017-Oct-21 20:00N 38°30' W 008°56'0 0.0
2017-Oct-21 19:30N 38°30' W 008°56'0 0.0
2017-Oct-21 19:00N 38°30' W 008°56'0 0.0
2017-Oct-21 18:30N 38°30' W 008°56'0 0.0
2017-Oct-21 18:00N 38°30' W 008°56'0 0.0
2017-Oct-21 17:30N 38°30' W 008°56'0 0.0
2017-Oct-21 17:00N 38°30' W 008°56'0 0.0
2017-Oct-21 16:30N 38°30' W 008°56'0 0.0
2017-Oct-21 16:00N 38°30' W 008°56'0 0.0
2017-Oct-21 15:30N 38°30' W 008°56'0 0.0
2017-Oct-21 15:00N 38°30' W 008°56'0 0.0
2017-Oct-21 14:00N 38°30' W 008°56'0 0.0
2017-Oct-21 13:30N 38°30' W 008°56'0 0.0
2017-Oct-21 13:00N 38°30' W 008°56'0 0.0
2017-Oct-21 12:30N 38°30' W 008°56'0 0.0
2017-Oct-21 12:00N 38°30' W 008°56'0 0.0
2017-Oct-21 11:30N 38°30' W 008°56'0 0.0
2017-Oct-21 11:00N 38°30' W 008°56'0 0.0
2017-Oct-21 10:30N 38°30' W 008°56'0 0.0
2017-Oct-21 10:00N 38°30' W 008°56'0 0.0
2017-Oct-21 09:30N 38°30' W 008°56'0 0.0
2017-Oct-21 09:00N 38°30' W 008°56'0 0.0
2017-Oct-21 08:30N 38°30' W 008°56'0 0.0
2017-Oct-21 07:57N 38°30' W 008°56'0 0.0
2017-Oct-21 07:30N 38°30' W 008°56'0 0.0
2017-Oct-21 07:00N 38°30' W 008°56'0 0.0
2017-Oct-21 06:27N 38°30' W 008°56'0 0.0
2017-Oct-21 06:00N 38°30' W 008°56'0 0.0
2017-Oct-21 05:30N 38°30' W 008°56'0 0.0
2017-Oct-21 04:57N 38°30' W 008°56'  
Track history (hours):
 
Tides and Currents Weather Stations Pressure Air Temp Water Temp Dewpoint Dewpoint Depression Visibility Wind Speed Wind Dir Waves Ship Positions

Rio Mitong

Last reported at 2017-Oct-31 04:43 UTC. Time now 2017-Nov-23 02:04 UTC.
Position N 25°53' W 016°13'.
Warning: this ship's position is 22 days out of date.

Length 122 m; draft 8.5 m.

Type: Cargo ship. MMSI: 616999031.

Date/timePositionNaut miles runAvg speedWind from/ knotsBaromVisibWave heightAir tempDewpointWater temp
2017-Oct-31 04:43N 25°53' W 016°13'1310.7
2017-Oct-31 03:32N 26°02' W 016°03'9010.6
2017-Oct-30 19:06N 27°03' W 014°50'110.0
2017-Oct-30 19:00N 27°04' W 014°49'510.0
2017-Oct-30 18:30N 27°08' W 014°45'510.2
2017-Oct-30 17:59N 27°11' W 014°41'510.2
2017-Oct-30 17:30N 27°15' W 014°37'510.2
2017-Oct-30 17:00N 27°18' W 014°33'510.2
2017-Oct-30 16:30N 27°22' W 014°29'510.3
2017-Oct-30 16:00N 27°25' W 014°25'510.4
2017-Oct-30 15:29N 27°29' W 014°20'510.5
2017-Oct-30 15:00N 27°32' W 014°16'1010.4
2017-Oct-30 14:00N 27°39' W 014°08'510.1
2017-Oct-30 13:30N 27°43' W 014°03'5 9.9
2017-Oct-30 13:00N 27°46' W 013°59'5 9.8
2017-Oct-30 12:30N 27°50' W 013°55'5 9.6
2017-Oct-30 12:00N 27°53' W 013°51'5 9.6
2017-Oct-30 11:30N 27°56' W 013°47'5 9.6
2017-Oct-30 11:00N 27°60' W 013°44'5 9.7
2017-Oct-30 10:30N 28°04' W 013°41'5 9.9
2017-Oct-30 10:00N 28°09' W 013°39'510.1
2017-Oct-30 09:30N 28°13' W 013°36'510.1
2017-Oct-30 08:57N 28°18' W 013°34'510.1
2017-Oct-30 08:30N 28°22' W 013°31'1010.2
2017-Oct-30 07:31N 28°31' W 013°27'010.3
2017-Oct-30 07:29N 28°32' W 013°26'710.2
2017-Oct-30 06:49N 28°38' W 013°23'5 9.9
2017-Oct-30 06:17N 28°43' W 013°21'6 9.9
2017-Oct-30 05:41N 28°48' W 013°18'7 9.9
2017-Oct-30 04:58N 28°54' W 013°15'910.2
2017-Oct-30 04:08N 29°02' W 013°11'210.6
2017-Oct-30 03:58N 29°04' W 013°10'510.6
2017-Oct-30 03:30N 29°08' W 013°08'2910.7
2017-Oct-30 00:48N 29°35' W 012°54'310.9
2017-Oct-30 00:30N 29°37' W 012°52'510.9
2017-Oct-30 00:00N 29°42' W 012°49'510.9
2017-Oct-29 23:30N 29°47' W 012°47'511.0
2017-Oct-29 23:00N 29°52' W 012°44'611.0
2017-Oct-29 22:30N 29°57' W 012°41'611.0
2017-Oct-29 22:00N 30°02' W 012°39'511.0
2017-Oct-29 21:30N 30°08' W 012°37'610.9
2017-Oct-29 21:00N 30°13' W 012°35'610.7
2017-Oct-29 20:26N 30°19' W 012°32'510.5
2017-Oct-29 19:59N 30°23' W 012°31'710.5
2017-Oct-29 19:16N 30°30' W 012°28'410.6
2017-Oct-29 18:54N 30°34' W 012°27'410.5
2017-Oct-29 18:30N 30°38' W 012°25'510.5
2017-Oct-29 18:00N 30°43' W 012°23'510.1
2017-Oct-29 17:29N 30°47' W 012°21'510.3
2017-Oct-29 17:00N 30°52' W 012°19'510.4
2017-Oct-29 16:30N 30°57' W 012°17'510.6
2017-Oct-29 15:59N 31°02' W 012°15'1610.5
2017-Oct-29 14:29N 31°17' W 012°09'510.6
2017-Oct-29 14:00N 31°22' W 012°07'510.7
2017-Oct-29 13:30N 31°27' W 012°05'710.7
2017-Oct-29 12:49N 31°34' W 012°02'910.4
2017-Oct-29 11:57N 31°42' W 011°59'510.3
2017-Oct-29 11:29N 31°47' W 011°57'510.4
2017-Oct-29 10:59N 31°52' W 011°55'910.5
2017-Oct-29 10:07N 32°01' W 011°52'110.4
2017-Oct-29 09:59N 32°02' W 011°51'510.4
2017-Oct-29 09:28N 32°07' W 011°49'810.3
2017-Oct-29 08:42N 32°14' W 011°46'310.1
2017-Oct-29 08:24N 32°17' W 011°45'610.2
2017-Oct-29 07:50N 32°23' W 011°42'310.4
2017-Oct-29 07:30N 32°26' W 011°41'510.4
2017-Oct-29 07:00N 32°31' W 011°39'510.2
2017-Oct-29 06:29N 32°36' W 011°37'610.3
2017-Oct-29 05:54N 32°42' W 011°35'410.5
2017-Oct-29 05:29N 32°46' W 011°33'510.6
2017-Oct-29 05:00N 32°51' W 011°31'510.6
2017-Oct-29 04:30N 32°56' W 011°29'510.6
2017-Oct-29 04:00N 33°01' W 011°27'9510.5
2017-Oct-28 18:58N 34°30' W 010°50'510.2
2017-Oct-28 18:30N 34°34' W 010°48'510.2
2017-Oct-28 18:00N 34°39' W 010°46'510.2
2017-Oct-28 17:30N 34°44' W 010°44'510.3
2017-Oct-28 17:00N 34°49' W 010°42'510.3
2017-Oct-28 16:30N 34°54' W 010°40'510.3
2017-Oct-28 16:00N 34°59' W 010°38'510.0
2017-Oct-28 15:30N 35°03' W 010°36'5 9.9
2017-Oct-28 15:00N 35°08' W 010°34'510.0
2017-Oct-28 14:30N 35°13' W 010°32'510.2
2017-Oct-28 14:00N 35°18' W 010°30'510.3
2017-Oct-28 13:30N 35°22' W 010°28'510.1
2017-Oct-28 13:00N 35°27' W 010°26'510.1
2017-Oct-28 12:30N 35°32' W 010°24'510.2
2017-Oct-28 12:00N 35°37' W 010°22'510.2
2017-Oct-28 11:30N 35°42' W 010°19'3410.0
2017-Oct-28 08:06N 36°14' W 010°06'110.1
2017-Oct-28 07:59N 36°15' W 010°06'510.0
2017-Oct-28 07:30N 36°19' W 010°03'5 9.8
2017-Oct-28 07:00N 36°24' W 010°01'5 9.5
2017-Oct-28 06:30N 36°29' W 009°60'5 9.5
2017-Oct-28 06:00N 36°33' W 009°58'5 9.8
2017-Oct-28 05:30N 36°38' W 009°56'5 9.8
2017-Oct-28 05:00N 36°42' W 009°54'510.3
2017-Oct-28 04:30N 36°47' W 009°52'510.5
2017-Oct-28 04:00N 36°52' W 009°49'510.3
2017-Oct-28 03:30N 36°57' W 009°47'510.4
2017-Oct-28 03:00N 37°02' W 009°45'510.7
2017-Oct-28 02:30N 37°07' W 009°43'510.5
2017-Oct-28 02:00N 37°12' W 009°41'510.6
2017-Oct-28 01:30N 37°17' W 009°39'510.6
2017-Oct-28 01:00N 37°22' W 009°36'510.4
2017-Oct-28 00:30N 37°26' W 009°33'510.3
2017-Oct-28 00:00N 37°31' W 009°30'510.7
2017-Oct-27 23:30N 37°36' W 009°27'510.8
2017-Oct-27 23:00N 37°41' W 009°24'510.7
2017-Oct-27 22:30N 37°46' W 009°22'510.7
2017-Oct-27 22:00N 37°51' W 009°19'510.7
2017-Oct-27 21:30N 37°56' W 009°17'510.6
2017-Oct-27 21:00N 38°00' W 009°14'510.6
2017-Oct-27 20:30N 38°05' W 009°11'510.3
2017-Oct-27 20:00N 38°10' W 009°09'5 9.9
2017-Oct-27 19:30N 38°15' W 009°06'510.2
2017-Oct-27 19:00N 38°19' W 009°04'5 9.9
2017-Oct-27 18:30N 38°24' W 009°01'5 9.7
2017-Oct-27 18:00N 38°28' W 008°58'4 9.0
2017-Oct-27 17:30N 38°31' W 008°54'1 1.1
2017-Oct-27 16:58N 38°31' W 008°53'0 0.0
2017-Oct-27 16:25N 38°31' W 008°53'0 0.0
2017-Oct-27 15:49N 38°31' W 008°53'0 0.0
2017-Oct-27 15:25N 38°31' W 008°53'0 0.0
2017-Oct-27 14:55N 38°31' W 008°53'0 0.0
2017-Oct-27 14:28N 38°31' W 008°53'0 0.0
2017-Oct-27 13:58N 38°31' W 008°53'0 0.0
2017-Oct-27 13:25N 38°31' W 008°53'0 0.0
2017-Oct-27 12:58N 38°31' W 008°53'0 0.0
2017-Oct-27 12:28N 38°31' W 008°53'0 0.0
2017-Oct-27 11:55N 38°31' W 008°53'0 0.0
2017-Oct-27 11:22N 38°31' W 008°53'0 0.0
2017-Oct-27 10:58N 38°31' W 008°53'0 0.0
2017-Oct-27 10:28N 38°31' W 008°53'0 0.0
2017-Oct-27 09:58N 38°31' W 008°53'0 0.0
2017-Oct-27 09:25N 38°31' W 008°53'0 0.0
2017-Oct-27 08:52N 38°31' W 008°53'0 0.0
2017-Oct-27 08:28N 38°31' W 008°53'0 0.0
2017-Oct-27 07:58N 38°31' W 008°53'0 0.0
2017-Oct-27 07:28N 38°31' W 008°53'0 0.0
2017-Oct-27 06:58N 38°31' W 008°53'0 0.0
2017-Oct-27 06:25N 38°31' W 008°53'0 0.0
2017-Oct-27 05:58N 38°31' W 008°53'0 0.0
2017-Oct-27 05:28N 38°31' W 008°53'0 0.0
2017-Oct-27 04:58N 38°31' W 008°53'0 0.0
2017-Oct-27 04:25N 38°31' W 008°53'0 0.0
2017-Oct-27 04:00N 38°31' W 008°53'0 0.0
2017-Oct-27 03:30N 38°31' W 008°53'0 0.0
2017-Oct-27 03:00N 38°31' W 008°53'0 0.0
2017-Oct-27 02:30N 38°31' W 008°53'0 0.0
2017-Oct-27 01:54N 38°31' W 008°53'0 0.0
2017-Oct-27 01:30N 38°31' W 008°53'0 0.0
2017-Oct-27 01:00N 38°31' W 008°53'0 0.0
2017-Oct-27 00:30N 38°31' W 008°53'0 0.0
2017-Oct-27 00:00N 38°31' W 008°53'0 0.0
2017-Oct-26 23:27N 38°31' W 008°53'0 0.0
2017-Oct-26 23:00N 38°31' W 008°53'0 0.0
2017-Oct-26 22:27N 38°31' W 008°53'0 0.0
2017-Oct-26 22:00N 38°31' W 008°53'0 0.0
2017-Oct-26 21:27N 38°31' W 008°53'0 0.0
2017-Oct-26 21:00N 38°31' W 008°53'0 0.0
2017-Oct-26 20:30N 38°31' W 008°53'0 0.0
2017-Oct-26 20:00N 38°31' W 008°53'0 0.0
2017-Oct-26 19:30N 38°31' W 008°53'0 0.0
2017-Oct-26 19:00N 38°31' W 008°53'0 0.0
2017-Oct-26 18:27N 38°31' W 008°53'0 0.0
2017-Oct-26 18:00N 38°31' W 008°53'0 0.0
2017-Oct-26 17:30N 38°31' W 008°53'0 0.0
2017-Oct-26 16:54N 38°31' W 008°53'0 0.0
2017-Oct-26 16:30N 38°31' W 008°53'0 0.0
2017-Oct-26 16:00N 38°31' W 008°53'0 0.0
2017-Oct-26 15:30N 38°31' W 008°53'0 0.0
2017-Oct-26 14:57N 38°31' W 008°53'0 0.0
2017-Oct-26 14:30N 38°31' W 008°53'0 0.0
2017-Oct-26 14:00N 38°31' W 008°53'0 0.0
2017-Oct-26 13:27N 38°31' W 008°53'0 0.0
2017-Oct-26 13:00N 38°31' W 008°53'0 0.0
2017-Oct-26 12:30N 38°31' W 008°53'0 0.0
2017-Oct-26 12:00N 38°31' W 008°53'0 1.0
2017-Oct-26 11:30N 38°31' W 008°54'1 1.0
2017-Oct-26 10:59N 38°31' W 008°54'0 0.0
2017-Oct-26 10:29N 38°31' W 008°54'0 0.0
2017-Oct-26 09:53N 38°31' W 008°54'0 0.0
2017-Oct-26 09:29N 38°31' W 008°54'0 0.0
2017-Oct-26 08:59N 38°31' W 008°54'0 0.0
2017-Oct-26 08:23N 38°31' W 008°54'0 0.0
2017-Oct-26 07:53N 38°31' W 008°54'0 0.0
2017-Oct-26 07:29N 38°31' W 008°54'0 0.2
2017-Oct-26 06:53N 38°31' W 008°54'0 0.0
2017-Oct-26 06:26N 38°31' W 008°54'0 0.0
2017-Oct-26 05:59N 38°31' W 008°54'0 0.0
2017-Oct-26 05:29N 38°31' W 008°54'0 0.0
2017-Oct-26 04:59N 38°31' W 008°54'0 0.0
2017-Oct-26 04:29N 38°31' W 008°54'0 0.0
2017-Oct-26 03:56N 38°31' W 008°54'0 0.0
2017-Oct-26 03:29N 38°31' W 008°54'0 0.0
2017-Oct-26 02:59N 38°31' W 008°54'0 0.0
2017-Oct-26 02:29N 38°31' W 008°54'0 0.0
2017-Oct-26 01:59N 38°31' W 008°54'0 0.0
2017-Oct-26 01:29N 38°31' W 008°54'0 0.0
2017-Oct-26 00:59N 38°31' W 008°54'0 0.1
2017-Oct-26 00:29N 38°31' W 008°54'0 0.2
2017-Oct-25 23:59N 38°31' W 008°54'0 0.0
2017-Oct-25 23:26N 38°31' W 008°54'0 0.0
2017-Oct-25 22:59N 38°31' W 008°54'0 0.0
2017-Oct-25 22:29N 38°31' W 008°54'0 0.0
2017-Oct-25 21:59N 38°31' W 008°54'0 0.0
2017-Oct-25 21:23N 38°31' W 008°54'0 0.0
2017-Oct-25 20:17N 38°31' W 008°54'0 0.0
2017-Oct-25 19:59N 38°31' W 008°54'0 0.2
2017-Oct-25 19:26N 38°31' W 008°54'0 0.1
2017-Oct-25 18:59N 38°31' W 008°54'0 0.1
2017-Oct-25 18:29N 38°31' W 008°54'0 0.0
2017-Oct-25 17:59N 38°31' W 008°54'0 0.0
2017-Oct-25 17:29N 38°31' W 008°54'0 0.0
2017-Oct-25 16:59N 38°31' W 008°54'0 0.0
2017-Oct-25 16:29N 38°31' W 008°54'0 0.0
2017-Oct-25 15:59N 38°31' W 008°54'0 0.0
2017-Oct-25 15:29N 38°31' W 008°54'0 0.0
2017-Oct-25 14:59N 38°31' W 008°54'0 0.0
2017-Oct-25 14:23N 38°31' W 008°54'0 0.0
2017-Oct-25 13:41N 38°31' W 008°54'0 0.0
2017-Oct-25 13:26N 38°31' W 008°54'0 0.0
2017-Oct-25 12:59N 38°31' W 008°54'0 0.0
2017-Oct-25 12:29N 38°31' W 008°54'0 0.1
2017-Oct-25 11:56N 38°31' W 008°54'0 0.2
2017-Oct-25 11:23N 38°31' W 008°54'1 2.3
2017-Oct-25 10:59N 38°30' W 008°55'1 1.7
2017-Oct-25 10:27N 38°30' W 008°56'0 0.0
2017-Oct-25 09:57N 38°30' W 008°56'0 0.0
2017-Oct-25 09:27N 38°30' W 008°56'0 0.0
2017-Oct-25 08:51N 38°30' W 008°56'0 0.0
2017-Oct-25 08:30N 38°30' W 008°56'0 0.0
2017-Oct-25 08:00N 38°30' W 008°56'0 0.0
2017-Oct-25 07:30N 38°30' W 008°56'0 0.0
2017-Oct-25 07:00N 38°30' W 008°56'0 0.0
2017-Oct-25 06:30N 38°30' W 008°56'0 0.0
2017-Oct-25 06:00N 38°30' W 008°56'0 0.0
2017-Oct-25 05:30N 38°30' W 008°56'0 0.0
2017-Oct-25 05:00N 38°30' W 008°56'0 0.0
2017-Oct-25 04:30N 38°30' W 008°56'0 0.0
2017-Oct-25 04:00N 38°30' W 008°56'0 0.0
2017-Oct-25 03:30N 38°30' W 008°56'0 0.0
2017-Oct-25 03:00N 38°30' W 008°56'0 0.0
2017-Oct-25 02:30N 38°30' W 008°56'0 0.0
2017-Oct-25 02:00N 38°30' W 008°56'0 0.0
2017-Oct-25 01:30N 38°30' W 008°56'0 0.0
2017-Oct-25 01:00N 38°30' W 008°56'0 0.0
2017-Oct-25 00:30N 38°30' W 008°56'0 0.0
2017-Oct-25 00:00N 38°30' W 008°56'0 0.0
2017-Oct-24 23:30N 38°30' W 008°56'0 0.0
2017-Oct-24 23:00N 38°30' W 008°56'0 0.0
2017-Oct-24 22:30N 38°30' W 008°56'0 0.0
2017-Oct-24 22:00N 38°30' W 008°56'0 0.0
2017-Oct-24 21:30N 38°30' W 008°56'0 0.0
2017-Oct-24 21:00N 38°30' W 008°56'0 0.0
2017-Oct-24 20:27N 38°30' W 008°56'0 0.0
2017-Oct-24 20:00N 38°30' W 008°56'0 0.0
2017-Oct-24 19:30N 38°30' W 008°56'0 0.0
2017-Oct-24 19:00N 38°30' W 008°56'0 0.0
2017-Oct-24 18:30N 38°30' W 008°56'0 0.0
2017-Oct-24 18:00N 38°30' W 008°56'0 0.0
2017-Oct-24 17:27N 38°30' W 008°56'0 0.0
2017-Oct-24 16:57N 38°30' W 008°56'0 0.0
2017-Oct-24 16:30N 38°30' W 008°56'0 0.0
2017-Oct-24 16:00N 38°30' W 008°56'0 0.0
2017-Oct-24 15:30N 38°30' W 008°56'0 0.0
2017-Oct-24 15:00N 38°30' W 008°56'0 0.0
2017-Oct-24 14:30N 38°30' W 008°56'0 0.0
2017-Oct-24 14:00N 38°30' W 008°56'0 0.0
2017-Oct-24 13:30N 38°30' W 008°56'0 0.0
2017-Oct-24 13:00N 38°30' W 008°56'0 0.0
2017-Oct-24 12:30N 38°30' W 008°56'0 0.0
2017-Oct-24 12:00N 38°30' W 008°56'0 0.0
2017-Oct-24 11:30N 38°30' W 008°56'0 0.0
2017-Oct-24 11:00N 38°30' W 008°56'0 0.0
2017-Oct-24 10:30N 38°30' W 008°56'0 0.0
2017-Oct-24 10:00N 38°30' W 008°56'0 0.0
2017-Oct-24 09:27N 38°30' W 008°56'0 0.0
2017-Oct-24 09:00N 38°30' W 008°56'0 0.0
2017-Oct-24 08:30N 38°30' W 008°56'0 0.0
2017-Oct-24 07:54N 38°30' W 008°56'0 0.0
2017-Oct-24 07:30N 38°30' W 008°56'0 0.0
2017-Oct-24 07:00N 38°30' W 008°56'0 0.0
2017-Oct-24 06:30N 38°30' W 008°56'0 0.0
2017-Oct-24 06:00N 38°30' W 008°56'0 0.0
2017-Oct-24 05:30N 38°30' W 008°56'0 0.0
2017-Oct-24 05:00N 38°30' W 008°56'0 0.0
2017-Oct-24 04:30N 38°30' W 008°56'0 0.0
2017-Oct-24 04:00N 38°30' W 008°56'0 0.0
2017-Oct-24 03:30N 38°30' W 008°56'0 0.0
2017-Oct-24 03:00N 38°30' W 008°56'0 0.0
2017-Oct-24 02:30N 38°30' W 008°56'0 0.0
2017-Oct-24 02:00N 38°30' W 008°56'0 0.0
2017-Oct-24 01:30N 38°30' W 008°56'0 0.0
2017-Oct-24 01:00N 38°30' W 008°56'0 0.0
2017-Oct-24 00:30N 38°30' W 008°56'0 0.0
2017-Oct-24 00:00N 38°30' W 008°56'0 0.0
2017-Oct-23 23:30N 38°30' W 008°56'0 0.0
2017-Oct-23 23:00N 38°30' W 008°56'0 0.0
2017-Oct-23 22:30N 38°30' W 008°56'0 0.0
2017-Oct-23 22:00N 38°30' W 008°56'0 0.0
2017-Oct-23 21:30N 38°30' W 008°56'0 0.0
2017-Oct-23 21:00N 38°30' W 008°56'0 0.0
2017-Oct-23 20:30N 38°30' W 008°56'0 0.0
2017-Oct-23 19:57N 38°30' W 008°56'0 0.0
2017-Oct-23 19:30N 38°30' W 008°56'0 0.0
2017-Oct-23 19:00N 38°30' W 008°56'0 0.0
2017-Oct-23 18:30N 38°30' W 008°56'0 0.0
2017-Oct-23 18:00N 38°30' W 008°56'0 0.0
2017-Oct-23 16:39N 38°30' W 008°56'0 0.0
2017-Oct-23 16:24N 38°30' W 008°56'0 0.0
2017-Oct-23 15:54N 38°30' W 008°56'0 0.0
2017-Oct-23 15:30N 38°30' W 008°56'0 0.0
2017-Oct-23 15:00N 38°30' W 008°56'0 0.0
2017-Oct-23 14:27N 38°30' W 008°56'0 0.0
2017-Oct-23 14:00N 38°30' W 008°56'0 0.0
2017-Oct-23 13:30N 38°30' W 008°56'0 0.0
2017-Oct-23 13:00N 38°30' W 008°56'0 0.0
2017-Oct-23 12:30N 38°30' W 008°56'0 0.0
2017-Oct-23 12:00N 38°30' W 008°56'0 0.0
2017-Oct-23 11:30N 38°30' W 008°56'0 0.0
2017-Oct-23 11:00N 38°30' W 008°56'0 0.0
2017-Oct-23 10:30N 38°30' W 008°56'0 0.0
2017-Oct-23 09:57N 38°30' W 008°56'0 0.0
2017-Oct-23 09:30N 38°30' W 008°56'0 0.0
2017-Oct-23 09:00N 38°30' W 008°56'0 0.0
2017-Oct-23 08:30N 38°30' W 008°56'0 0.0
2017-Oct-23 08:00N 38°30' W 008°56'0 0.0
2017-Oct-23 07:30N 38°30' W 008°56'0 0.0
2017-Oct-23 06:57N 38°30' W 008°56'0 0.0
2017-Oct-23 06:30N 38°30' W 008°56'0 0.0
2017-Oct-23 06:00N 38°30' W 008°56'0 0.0
2017-Oct-23 05:30N 38°30' W 008°56'0 0.0
2017-Oct-23 05:00N 38°30' W 008°56'0 0.0
2017-Oct-23 04:30N 38°30' W 008°56'0 0.0
2017-Oct-23 04:00N 38°30' W 008°56'0 0.0
2017-Oct-23 03:30N 38°30' W 008°56'0 0.0
2017-Oct-23 03:00N 38°30' W 008°56'0 0.0
2017-Oct-23 02:30N 38°30' W 008°56'0 0.0
2017-Oct-23 02:00N 38°30' W 008°56'0 0.0
2017-Oct-23 01:30N 38°30' W 008°56'0 0.0
2017-Oct-23 01:00N 38°30' W 008°56'0 0.0
2017-Oct-23 00:30N 38°30' W 008°56'0 0.0
2017-Oct-23 00:00N 38°30' W 008°56'0 0.0
2017-Oct-22 23:30N 38°30' W 008°56'0 0.0
2017-Oct-22 23:00N 38°30' W 008°56'0 0.0
2017-Oct-22 22:30N 38°30' W 008°56'0 0.0
2017-Oct-22 22:00N 38°30' W 008°56'0 0.0
2017-Oct-22 21:30N 38°30' W 008°56'0 0.0
2017-Oct-22 21:00N 38°30' W 008°56'0 0.0
2017-Oct-22 20:27N 38°30' W 008°56'0 0.0
2017-Oct-22 20:00N 38°30' W 008°56'0 0.0
2017-Oct-22 19:30N 38°30' W 008°56'0 0.0
2017-Oct-22 19:00N 38°30' W 008°56'0 0.0
2017-Oct-22 18:30N 38°30' W 008°56'0 0.0
2017-Oct-22 18:00N 38°30' W 008°56'0 0.0
2017-Oct-22 17:30N 38°30' W 008°56'0 0.0
2017-Oct-22 17:00N 38°30' W 008°56'0 0.0
2017-Oct-22 16:30N 38°30' W 008°56'0 0.0
2017-Oct-22 16:00N 38°30' W 008°56'0 0.0
2017-Oct-22 15:30N 38°30' W 008°56'0 0.0
2017-Oct-22 14:57N 38°30' W 008°56'0 0.0
2017-Oct-22 14:27N 38°30' W 008°56'0 0.0
2017-Oct-22 14:00N 38°30' W 008°56'0 0.0
2017-Oct-22 13:30N 38°30' W 008°56'0 0.0
2017-Oct-22 12:57N 38°30' W 008°56'0 0.0
2017-Oct-22 12:30N 38°30' W 008°56'0 0.0
2017-Oct-22 12:00N 38°30' W 008°56'0 0.0
2017-Oct-22 11:27N 38°30' W 008°56'0 0.0
2017-Oct-22 10:57N 38°30' W 008°56'0 0.0
2017-Oct-22 10:30N 38°30' W 008°56'0 0.0
2017-Oct-22 10:00N 38°30' W 008°56'0 0.0
2017-Oct-22 09:30N 38°30' W 008°56'0 0.0
2017-Oct-22 09:00N 38°30' W 008°56'0 0.0
2017-Oct-22 08:30N 38°30' W 008°56'0 0.0
2017-Oct-22 07:54N 38°30' W 008°56'0 0.0
2017-Oct-22 07:30N 38°30' W 008°56'0 0.0
2017-Oct-22 07:00N 38°30' W 008°56'0 0.0
2017-Oct-22 06:30N 38°30' W 008°56'0 0.0
2017-Oct-22 06:00N 38°30' W 008°56'0 0.0
2017-Oct-22 05:27N 38°30' W 008°56'0 0.0
2017-Oct-22 05:00N 38°30' W 008°56'0 0.0
2017-Oct-22 04:30N 38°30' W 008°56'0 0.0
2017-Oct-22 04:00N 38°30' W 008°56'0 0.0
2017-Oct-22 03:30N 38°30' W 008°56'0 0.0
2017-Oct-22 03:00N 38°30' W 008°56'0 0.0
2017-Oct-22 02:30N 38°30' W 008°56'0 0.0
2017-Oct-22 02:00N 38°30' W 008°56'0 0.0
2017-Oct-22 01:27N 38°30' W 008°56'0 0.0
2017-Oct-22 01:00N 38°30' W 008°56'0 0.0
2017-Oct-22 00:30N 38°30' W 008°56'0 0.0
2017-Oct-22 00:00N 38°30' W 008°56'0 0.0
2017-Oct-21 23:30N 38°30' W 008°56'0 0.0
2017-Oct-21 23:00N 38°30' W 008°56'0 0.0
2017-Oct-21 22:30N 38°30' W 008°56'0 0.0
2017-Oct-21 22:00N 38°30' W 008°56'0 0.0
2017-Oct-21 21:30N 38°30' W 008°56'0 0.0
2017-Oct-21 21:00N 38°30' W 008°56'0 0.0
2017-Oct-21 20:24N 38°30' W 008°56'0 0.0
2017-Oct-21 20:00N 38°30' W 008°56'0 0.0
2017-Oct-21 19:30N 38°30' W 008°56'0 0.0
2017-Oct-21 19:00N 38°30' W 008°56'0 0.0
2017-Oct-21 18:30N 38°30' W 008°56'0 0.0
2017-Oct-21 18:00N 38°30' W 008°56'0 0.0
2017-Oct-21 17:30N 38°30' W 008°56'0 0.0
2017-Oct-21 17:00N 38°30' W 008°56'0 0.0
2017-Oct-21 16:30N 38°30' W 008°56'0 0.0
2017-Oct-21 16:00N 38°30' W 008°56'0 0.0
2017-Oct-21 15:30N 38°30' W 008°56'0 0.0
2017-Oct-21 15:00N 38°30' W 008°56'0 0.0
2017-Oct-21 14:00N 38°30' W 008°56'0 0.0
2017-Oct-21 13:30N 38°30' W 008°56'0 0.0
2017-Oct-21 13:00N 38°30' W 008°56'0 0.0
2017-Oct-21 12:30N 38°30' W 008°56'0 0.0
2017-Oct-21 12:00N 38°30' W 008°56'0 0.0
2017-Oct-21 11:30N 38°30' W 008°56'0 0.0
2017-Oct-21 11:00N 38°30' W 008°56'0 0.0
2017-Oct-21 10:30N 38°30' W 008°56'0 0.0
2017-Oct-21 10:00N 38°30' W 008°56'0 0.0
2017-Oct-21 09:30N 38°30' W 008°56'0 0.0
2017-Oct-21 09:00N 38°30' W 008°56'0 0.0
2017-Oct-21 08:30N 38°30' W 008°56'0 0.0
2017-Oct-21 07:57N 38°30' W 008°56'0 0.0
2017-Oct-21 07:30N 38°30' W 008°56'0 0.0
2017-Oct-21 07:00N 38°30' W 008°56'0 0.0
2017-Oct-21 06:27N 38°30' W 008°56'0 0.0
2017-Oct-21 06:00N 38°30' W 008°56'0 0.0
2017-Oct-21 05:30N 38°30' W 008°56'0 0.0
2017-Oct-21 04:57N 38°30' W 008°56'  

Dump ship's entire track history